Archival Weather

Longyear

Longyear, Svalbard (ENSB)

Report from: Wednesday, December 6, 2023 5:50 PM UTC
Current time: Saturday, February 24, 2024 4:03 PM UTC

Current weather – Weather history – Daily summaries
Weather forecast

Temperature-4.0°C (24.8°F)
Wind chill-12.2°C (10.0°F)
Dew point-8.0°C (17.6°F)
Winds 19 kts (9.8 m/s, 21.9 mph) East-Southeast (120°)
Visibility6.2 mi. (10 km)
Clouds Few clouds 2,500 ft. (762 m)
Scattered clouds 15,000 ft. (4,572 m)
Altimeter30.53 in.Hg (1034 mB)
Relative humidity74 %
Density altitude-2,994 ft. (-913 m)
Flight conditions Visual Meteorological Conditions
Raw dataENSB 061750Z 12019KT 9999 FEW025 SCT150 M04/M08 Q1034 RMK WIND 1400FT 10020KT
An error has occurred. This application may no longer respond until reloaded. Reload 🗙